createdAt,value
2022-11-29T00:00:27.675Z,1013.65
2022-11-29T00:01:27.956Z,1013.68
2022-11-29T00:02:28.304Z,1013.65
2022-11-29T00:03:28.639Z,1013.71
2022-11-29T00:04:28.787Z,1013.65
2022-11-29T00:05:29.100Z,1013.68
2022-11-29T00:06:29.368Z,1013.68
2022-11-29T00:07:29.679Z,1013.67
2022-11-29T00:08:29.908Z,1013.70
2022-11-29T00:09:30.172Z,1013.63
2022-11-29T00:10:30.477Z,1013.67
2022-11-29T00:11:30.719Z,1013.73
2022-11-29T00:12:30.957Z,1013.71
2022-11-29T00:13:31.209Z,1013.73
2022-11-29T00:14:31.477Z,1013.69
2022-11-29T00:15:31.712Z,1013.73
2022-11-29T00:16:32.040Z,1013.73
2022-11-29T00:17:32.354Z,1013.74
2022-11-29T00:18:32.602Z,1013.79
2022-11-29T00:19:32.891Z,1013.75
2022-11-29T00:20:33.131Z,1013.80
2022-11-29T00:21:33.399Z,1013.77
2022-11-29T00:22:33.685Z,1013.82
2022-11-29T00:23:33.960Z,1013.74
2022-11-29T00:24:34.198Z,1013.79
2022-11-29T00:25:34.444Z,1013.83
2022-11-29T00:26:34.705Z,1013.78
2022-11-29T00:27:34.991Z,1013.76
2022-11-29T00:28:35.251Z,1013.73
2022-11-29T00:29:35.519Z,1013.72
2022-11-29T00:30:35.821Z,1013.76
2022-11-29T00:31:36.095Z,1013.77
2022-11-29T00:32:36.368Z,1013.71
2022-11-29T00:33:36.645Z,1013.78
2022-11-29T00:34:36.883Z,1013.70
2022-11-29T00:35:37.164Z,1013.74
2022-11-29T00:36:37.424Z,1013.72
2022-11-29T00:37:37.693Z,1013.74
2022-11-29T00:38:37.919Z,1013.74
2022-11-29T00:39:38.215Z,1013.67
2022-11-29T00:40:38.575Z,1013.64
2022-11-29T00:41:38.864Z,1013.67
2022-11-29T00:42:39.170Z,1013.68
2022-11-29T00:43:39.468Z,1013.66
2022-11-29T00:44:39.787Z,1013.68
2022-11-29T00:45:40.098Z,1013.64
2022-11-29T00:46:40.356Z,1013.58
2022-11-29T00:47:40.625Z,1013.63
2022-11-29T00:48:40.903Z,1013.63
2022-11-29T00:49:41.221Z,1013.61
2022-11-29T00:50:41.547Z,1013.54
2022-11-29T00:51:41.797Z,1013.58
2022-11-29T00:52:42.056Z,1013.58
2022-11-29T00:53:42.305Z,1013.57
2022-11-29T00:54:42.914Z,1013.57
2022-11-29T00:55:42.893Z,1013.61
2022-11-29T00:56:43.144Z,1013.50
2022-11-29T00:57:43.429Z,1013.55
2022-11-29T00:58:43.698Z,1013.50
2022-11-29T00:59:44.081Z,1013.53
2022-11-29T01:00:44.406Z,1013.56
2022-11-29T01:01:44.645Z,1013.56
2022-11-29T01:02:44.977Z,1013.56
2022-11-29T01:03:45.210Z,1013.51
2022-11-29T01:04:45.740Z,1013.55
2022-11-29T01:05:45.703Z,1013.53
2022-11-29T01:06:45.938Z,1013.51
2022-11-29T01:07:46.241Z,1013.55
2022-11-29T01:08:46.520Z,1013.54
2022-11-29T01:09:46.815Z,1013.58
2022-11-29T01:10:47.079Z,1013.58
2022-11-29T01:11:47.329Z,1013.53
2022-11-29T01:12:47.587Z,1013.58
2022-11-29T01:13:48.031Z,1013.61
2022-11-29T01:14:48.167Z,1013.63
2022-11-29T01:15:48.468Z,1013.61
2022-11-29T01:16:48.790Z,1013.62
2022-11-29T01:17:49.088Z,1013.53
2022-11-29T01:18:49.358Z,1013.57
2022-11-29T01:19:51.079Z,1013.58
2022-11-29T01:20:49.915Z,1013.56
2022-11-29T01:21:50.302Z,1013.53
2022-11-29T01:22:50.628Z,1013.65
2022-11-29T01:23:50.832Z,1013.60
2022-11-29T01:24:51.150Z,1013.58
2022-11-29T01:25:51.403Z,1013.60
2022-11-29T01:26:51.640Z,1013.60
2022-11-29T01:27:51.881Z,1013.60
2022-11-29T01:28:52.154Z,1013.65
2022-11-29T01:29:52.417Z,1013.62
2022-11-29T01:30:52.709Z,1013.68
2022-11-29T01:31:52.956Z,1013.65
2022-11-29T01:32:53.228Z,1013.59
2022-11-29T01:33:53.498Z,1013.66
2022-11-29T01:34:53.773Z,1013.65
2022-11-29T01:35:54.034Z,1013.65
2022-11-29T01:36:54.345Z,1013.67
2022-11-29T01:37:54.573Z,1013.65
2022-11-29T01:38:54.864Z,1013.64
2022-11-29T01:39:55.135Z,1013.62
2022-11-29T01:40:55.365Z,1013.63
2022-11-29T01:41:55.730Z,1013.63
2022-11-29T01:42:55.962Z,1013.65
2022-11-29T01:43:56.264Z,1013.63
2022-11-29T01:44:56.620Z,1013.63
2022-11-29T01:45:56.886Z,1013.64
2022-11-29T01:46:57.178Z,1013.60
2022-11-29T01:47:57.575Z,1013.64
2022-11-29T01:48:57.728Z,1013.71
2022-11-29T01:49:58.118Z,1013.71
2022-11-29T01:50:58.321Z,1013.64
2022-11-29T01:51:58.536Z,1013.67
2022-11-29T01:52:58.823Z,1013.71
2022-11-29T01:53:59.136Z,1013.70
2022-11-29T01:54:59.464Z,1013.72
2022-11-29T01:55:59.684Z,1013.71
2022-11-29T01:57:00.049Z,1013.75
2022-11-29T01:58:00.166Z,1013.67
2022-11-29T01:59:00.464Z,1013.77
2022-11-29T02:00:00.807Z,1013.68
2022-11-29T02:01:01.146Z,1013.77
2022-11-29T02:02:01.474Z,1013.69
2022-11-29T02:03:01.701Z,1013.71
2022-11-29T02:04:01.995Z,1013.78
2022-11-29T02:05:02.373Z,1013.74
2022-11-29T02:06:02.612Z,1013.71
2022-11-29T02:07:02.842Z,1013.77
2022-11-29T02:08:03.163Z,1013.68
2022-11-29T02:09:03.419Z,1013.81
2022-11-29T02:10:03.770Z,1013.71
2022-11-29T02:11:03.971Z,1013.72
2022-11-29T02:12:04.280Z,1013.71
2022-11-29T02:13:04.631Z,1013.68
2022-11-29T02:14:04.816Z,1013.64
2022-11-29T02:15:05.130Z,1013.66
2022-11-29T02:16:05.503Z,1013.61
2022-11-29T02:17:05.785Z,1013.67
2022-11-29T02:18:06.091Z,1013.65
2022-11-29T02:19:06.365Z,1013.64
2022-11-29T02:20:06.689Z,1013.63
2022-11-29T02:21:06.967Z,1013.67
2022-11-29T02:22:07.231Z,1013.59
2022-11-29T02:23:07.509Z,1013.60
2022-11-29T02:24:07.758Z,1013.62
2022-11-29T02:25:08.021Z,1013.64
2022-11-29T02:26:08.262Z,1013.56
2022-11-29T02:27:08.512Z,1013.59
2022-11-29T02:28:08.771Z,1013.60
2022-11-29T02:29:09.010Z,1013.64
2022-11-29T02:30:09.291Z,1013.60
2022-11-29T02:31:09.594Z,1013.66
2022-11-29T02:32:09.840Z,1013.61
2022-11-29T02:33:10.081Z,1013.60
2022-11-29T02:34:10.302Z,1013.67
2022-11-29T02:35:10.673Z,1013.73
2022-11-29T02:36:10.928Z,1013.68
2022-11-29T02:37:11.744Z,1013.62
2022-11-29T02:38:11.519Z,1013.68
2022-11-29T02:39:11.787Z,1013.69
2022-11-29T02:40:12.095Z,1013.66
2022-11-29T02:41:12.363Z,1013.61
2022-11-29T02:42:12.653Z,1013.68
2022-11-29T02:43:12.881Z,1013.75
2022-11-29T02:44:13.166Z,1013.71
2022-11-29T02:45:13.457Z,1013.74
2022-11-29T02:46:13.795Z,1013.77
2022-11-29T02:47:13.946Z,1013.82
2022-11-29T02:48:14.218Z,1013.78
2022-11-29T02:49:14.505Z,1013.71
2022-11-29T02:50:14.807Z,1013.75
2022-11-29T02:51:15.103Z,1013.79
2022-11-29T02:52:15.363Z,1013.71
2022-11-29T02:53:15.628Z,1013.74
2022-11-29T02:54:15.885Z,1013.73
2022-11-29T02:55:16.185Z,1013.74
2022-11-29T02:56:16.444Z,1013.79
2022-11-29T02:57:16.742Z,1013.81
2022-11-29T02:58:16.987Z,1013.78
2022-11-29T02:59:17.227Z,1013.72
2022-11-29T03:00:17.519Z,1013.81
2022-11-29T03:01:17.810Z,1013.81
2022-11-29T03:02:18.136Z,1013.76
2022-11-29T03:03:18.410Z,1013.76
2022-11-29T03:04:18.675Z,1013.75
2022-11-29T03:05:18.937Z,1013.76
2022-11-29T03:06:19.176Z,1013.74
2022-11-29T03:07:19.465Z,1013.75
2022-11-29T03:08:19.728Z,1013.75
2022-11-29T03:09:19.998Z,1013.78
2022-11-29T03:10:20.285Z,1013.80
2022-11-29T03:11:20.552Z,1013.81
2022-11-29T03:12:20.830Z,1013.71
2022-11-29T03:13:21.054Z,1013.75
2022-11-29T03:14:21.306Z,1013.81
2022-11-29T03:15:21.600Z,1013.84
2022-11-29T03:16:21.842Z,1013.80
2022-11-29T03:17:22.169Z,1013.75
2022-11-29T03:18:22.466Z,1013.77
2022-11-29T03:19:22.785Z,1013.82
2022-11-29T03:20:23.042Z,1013.85
2022-11-29T03:21:23.312Z,1013.83
2022-11-29T03:22:23.647Z,1013.89
2022-11-29T03:23:23.919Z,1013.86
2022-11-29T03:24:24.152Z,1013.82
2022-11-29T03:25:24.416Z,1013.86
2022-11-29T03:26:24.648Z,1013.85
2022-11-29T03:27:24.889Z,1013.84
2022-11-29T03:28:25.131Z,1013.83
2022-11-29T03:29:25.409Z,1013.80
2022-11-29T03:30:25.683Z,1013.85
2022-11-29T03:31:25.973Z,1013.90
2022-11-29T03:32:26.234Z,1013.91
2022-11-29T03:33:26.472Z,1013.84
2022-11-29T03:34:26.715Z,1013.89
2022-11-29T03:35:26.983Z,1013.95
2022-11-29T03:36:27.260Z,1013.91
2022-11-29T03:37:27.492Z,1013.87
2022-11-29T03:38:27.764Z,1013.93
2022-11-29T03:39:28.024Z,1013.94
2022-11-29T03:40:28.314Z,1014.00
2022-11-29T03:41:28.577Z,1013.99
2022-11-29T03:42:28.896Z,1013.98
2022-11-29T03:43:29.154Z,1014.00
2022-11-29T03:44:29.425Z,1014.01
2022-11-29T03:45:29.664Z,1014.02
2022-11-29T03:46:29.989Z,1014.06
2022-11-29T03:47:30.218Z,1014.03
2022-11-29T03:48:30.458Z,1014.07
2022-11-29T03:49:30.695Z,1013.97
2022-11-29T03:50:30.954Z,1014.05
2022-11-29T03:51:31.205Z,1014.04
2022-11-29T03:52:31.476Z,1014.04
2022-11-29T03:53:31.704Z,1014.05
2022-11-29T03:54:31.975Z,1014.08
2022-11-29T03:55:32.256Z,1014.05
2022-11-29T03:56:32.486Z,1014.08
2022-11-29T03:57:32.779Z,1014.08
2022-11-29T03:58:33.035Z,1014.04
2022-11-29T03:59:33.295Z,1014.03
2022-11-29T04:00:33.575Z,1014.09
2022-11-29T04:01:33.929Z,1014.04
2022-11-29T04:02:34.176Z,1014.07
2022-11-29T04:03:34.430Z,1014.08
2022-11-29T04:04:34.715Z,1014.07
2022-11-29T04:05:35.034Z,1014.10
2022-11-29T04:06:35.349Z,1014.10
2022-11-29T04:07:35.719Z,1014.07
2022-11-29T04:08:35.989Z,1014.12
2022-11-29T04:09:36.250Z,1014.08
2022-11-29T04:10:36.529Z,1014.04
2022-11-29T04:11:36.851Z,1014.16
2022-11-29T04:12:37.136Z,1014.11
2022-11-29T04:13:45.876Z,1014.15
2022-11-29T04:14:37.656Z,1014.14
2022-11-29T04:15:37.943Z,1014.17
2022-11-29T04:16:38.149Z,1014.20
2022-11-29T04:17:38.368Z,1014.16
2022-11-29T04:18:38.727Z,1014.18
2022-11-29T04:19:38.958Z,1014.14
2022-11-29T04:20:43.008Z,1014.13
2022-11-29T04:21:40.435Z,1014.15
2022-11-29T04:22:39.710Z,1014.18
2022-11-29T04:23:40.202Z,1014.18
2022-11-29T04:24:40.385Z,1014.20
2022-11-29T04:25:40.642Z,1014.16
2022-11-29T04:26:40.883Z,1014.17
2022-11-29T04:27:41.124Z,1014.19
2022-11-29T04:28:41.364Z,1014.20
2022-11-29T04:29:41.589Z,1014.17
2022-11-29T04:30:41.852Z,1014.13
2022-11-29T04:31:42.082Z,1014.19
2022-11-29T04:32:42.331Z,1014.15
2022-11-29T04:33:42.550Z,1014.18
2022-11-29T04:34:43.295Z,1014.23
2022-11-29T04:35:43.211Z,1014.21
2022-11-29T04:36:43.448Z,1014.16
2022-11-29T04:37:43.691Z,1014.18
2022-11-29T04:38:43.924Z,1014.18
2022-11-29T04:39:44.176Z,1014.13
2022-11-29T04:40:44.433Z,1014.18
2022-11-29T04:41:44.651Z,1014.13
2022-11-29T04:42:44.999Z,1014.16
2022-11-29T04:43:45.242Z,1014.18
2022-11-29T04:44:45.687Z,1014.14
2022-11-29T04:45:45.771Z,1014.21
2022-11-29T04:46:46.053Z,1014.18
2022-11-29T04:47:46.268Z,1014.18
2022-11-29T04:48:46.596Z,1014.19
2022-11-29T04:49:46.862Z,1014.20
2022-11-29T04:50:47.131Z,1014.21
2022-11-29T04:51:47.342Z,1014.20
2022-11-29T04:52:47.691Z,1014.19
2022-11-29T04:53:47.973Z,1014.19
2022-11-29T04:54:48.274Z,1014.14
2022-11-29T04:55:48.575Z,1014.17
2022-11-29T04:56:48.874Z,1014.27
2022-11-29T04:57:49.122Z,1014.23
2022-11-29T04:58:49.417Z,1014.26
2022-11-29T04:59:49.804Z,1014.26
2022-11-29T05:00:49.973Z,1014.26
2022-11-29T05:01:50.299Z,1014.29
2022-11-29T05:02:50.610Z,1014.31
2022-11-29T05:03:56.736Z,1014.32
2022-11-29T05:04:52.093Z,1014.34
2022-11-29T05:05:51.565Z,1014.27
2022-11-29T05:06:51.617Z,1014.36
2022-11-29T05:07:51.931Z,1014.33
2022-11-29T05:08:52.226Z,1014.39
2022-11-29T05:09:52.507Z,1014.41
2022-11-29T05:10:52.755Z,1014.35
2022-11-29T05:11:53.117Z,1014.37
2022-11-29T05:12:53.427Z,1014.43
2022-11-29T05:13:53.531Z,1014.39
2022-11-29T05:14:53.767Z,1014.42
2022-11-29T05:15:54.208Z,1014.42
2022-11-29T05:16:54.471Z,1014.39
2022-11-29T05:17:54.676Z,1014.48
2022-11-29T05:18:54.798Z,1014.51
2022-11-29T05:19:55.041Z,1014.46
2022-11-29T05:20:55.409Z,1014.48
2022-11-29T05:21:55.688Z,1014.46
2022-11-29T05:22:55.917Z,1014.45
2022-11-29T05:23:56.179Z,1014.46
2022-11-29T05:24:56.429Z,1014.48
2022-11-29T05:25:56.739Z,1014.48
2022-11-29T05:26:56.968Z,1014.56
2022-11-29T05:27:57.230Z,1014.56
2022-11-29T05:28:57.461Z,1014.52
2022-11-29T05:29:57.729Z,1014.55
2022-11-29T05:30:57.988Z,1014.51
2022-11-29T05:31:58.262Z,1014.58
2022-11-29T05:32:58.509Z,1014.61
2022-11-29T05:33:58.757Z,1014.65
2022-11-29T05:34:59.013Z,1014.60
2022-11-29T05:35:59.271Z,1014.64
2022-11-29T05:36:59.545Z,1014.69
2022-11-29T05:37:59.780Z,1014.69
2022-11-29T05:39:00.031Z,1014.69
2022-11-29T05:40:00.291Z,1014.66
2022-11-29T05:41:00.531Z,1014.65
2022-11-29T05:42:00.763Z,1014.68
2022-11-29T05:43:00.993Z,1014.68
2022-11-29T05:44:01.228Z,1014.69
2022-11-29T05:45:01.583Z,1014.71
2022-11-29T05:46:01.894Z,1014.73
2022-11-29T05:47:02.140Z,1014.71
2022-11-29T05:48:02.356Z,1014.77
2022-11-29T05:49:02.592Z,1014.81
2022-11-29T05:50:02.822Z,1014.73
2022-11-29T05:51:03.081Z,1014.74
2022-11-29T05:52:03.304Z,1014.76
2022-11-29T05:53:03.543Z,1014.73
2022-11-29T05:54:03.848Z,1014.76
2022-11-29T05:55:04.084Z,1014.74
2022-11-29T05:56:04.333Z,1014.82
2022-11-29T05:57:04.581Z,1014.86
2022-11-29T05:58:04.812Z,1014.81
2022-11-29T05:59:05.054Z,1014.85
2022-11-29T06:00:05.304Z,1014.84
2022-11-29T06:01:05.575Z,1014.87
2022-11-29T06:02:05.846Z,1014.84
2022-11-29T06:03:06.166Z,1014.86
2022-11-29T06:04:11.701Z,1014.93
2022-11-29T06:05:07.686Z,1014.95
2022-11-29T06:06:06.985Z,1014.87
2022-11-29T06:07:07.214Z,1014.88
2022-11-29T06:08:07.424Z,1014.88
2022-11-29T06:09:07.779Z,1014.83
2022-11-29T06:10:08.016Z,1014.89
2022-11-29T06:11:08.267Z,1014.89
2022-11-29T06:12:08.493Z,1014.91
2022-11-29T06:13:08.759Z,1014.95
2022-11-29T06:14:08.966Z,1014.96
2022-11-29T06:15:09.314Z,1014.92
2022-11-29T06:16:09.711Z,1014.95
2022-11-29T06:17:09.910Z,1014.92
2022-11-29T06:18:10.267Z,1014.94
2022-11-29T06:19:10.497Z,1014.90
2022-11-29T06:20:10.749Z,1014.90
2022-11-29T06:21:11.007Z,1014.97
2022-11-29T06:22:11.257Z,1014.93
2022-11-29T06:23:11.477Z,1014.97
2022-11-29T06:24:11.818Z,1014.92
2022-11-29T06:25:12.158Z,1014.99
2022-11-29T06:26:12.558Z,1014.98
2022-11-29T06:27:12.789Z,1015.00
2022-11-29T06:28:13.035Z,1015.00
2022-11-29T06:29:13.367Z,1015.05
2022-11-29T06:30:13.599Z,1015.05
2022-11-29T06:31:13.885Z,1015.04
2022-11-29T06:32:14.120Z,1014.99
2022-11-29T06:33:14.388Z,1015.07
2022-11-29T06:34:14.600Z,1015.11
2022-11-29T06:35:14.980Z,1015.05
2022-11-29T06:36:15.220Z,1015.04
2022-11-29T06:37:15.480Z,1015.05
2022-11-29T06:38:15.702Z,1015.05
2022-11-29T06:39:15.966Z,1015.08
2022-11-29T06:40:16.198Z,1015.07
2022-11-29T06:41:16.454Z,1015.08
2022-11-29T06:42:16.706Z,1015.09
2022-11-29T06:43:16.965Z,1015.12
2022-11-29T06:44:17.214Z,1015.14
2022-11-29T06:45:17.454Z,1015.12
2022-11-29T06:46:17.766Z,1015.14
2022-11-29T06:47:18.019Z,1015.21
2022-11-29T06:48:18.242Z,1015.20
2022-11-29T06:49:18.484Z,1015.19
2022-11-29T06:50:18.723Z,1015.19
2022-11-29T06:51:18.986Z,1015.21
2022-11-29T06:52:19.225Z,1015.20
2022-11-29T06:53:19.495Z,1015.24
2022-11-29T06:54:19.746Z,1015.25
2022-11-29T06:55:20.003Z,1015.24
2022-11-29T06:56:20.267Z,1015.26
2022-11-29T06:57:20.514Z,1015.27
2022-11-29T06:58:20.764Z,1015.28
2022-11-29T06:59:21.018Z,1015.25
2022-11-29T07:00:21.278Z,1015.31
2022-11-29T07:01:21.569Z,1015.31
2022-11-29T07:02:21.884Z,1015.34
2022-11-29T07:03:22.108Z,1015.31
2022-11-29T07:04:22.386Z,1015.29
2022-11-29T07:05:22.656Z,1015.35
2022-11-29T07:06:22.926Z,1015.30
2022-11-29T07:07:23.207Z,1015.29
2022-11-29T07:08:23.517Z,1015.33
2022-11-29T07:09:23.912Z,1015.36
2022-11-29T07:10:24.019Z,1015.35
2022-11-29T07:11:24.289Z,1015.35
2022-11-29T07:12:24.567Z,1015.40
2022-11-29T07:13:24.790Z,1015.42
2022-11-29T07:14:25.053Z,1015.42
2022-11-29T07:15:25.292Z,1015.45
2022-11-29T07:16:25.647Z,1015.43
2022-11-29T07:17:25.890Z,1015.40
2022-11-29T07:18:26.177Z,1015.46
2022-11-29T07:19:26.441Z,1015.48
2022-11-29T07:20:26.709Z,1015.41
2022-11-29T07:21:26.984Z,1015.50
2022-11-29T07:22:27.252Z,1015.47
2022-11-29T07:23:27.511Z,1015.46
2022-11-29T07:24:27.782Z,1015.50
2022-11-29T07:25:28.029Z,1015.52
2022-11-29T07:26:28.333Z,1015.52
2022-11-29T07:27:28.581Z,1015.52
2022-11-29T07:28:28.831Z,1015.53
2022-11-29T07:29:29.096Z,1015.55
2022-11-29T07:30:29.353Z,1015.52
2022-11-29T07:31:29.703Z,1015.53
2022-11-29T07:32:29.940Z,1015.55
2022-11-29T07:33:30.185Z,1015.58
2022-11-29T07:34:30.433Z,1015.58
2022-11-29T07:35:30.684Z,1015.56
2022-11-29T07:36:30.972Z,1015.61
2022-11-29T07:37:31.323Z,1015.56
2022-11-29T07:38:31.573Z,1015.57
2022-11-29T07:39:31.848Z,1015.60
2022-11-29T07:40:37.410Z,1015.55
2022-11-29T07:41:33.384Z,1015.59
2022-11-29T07:42:32.688Z,1015.62
2022-11-29T07:43:32.929Z,1015.66
2022-11-29T07:44:33.194Z,1015.61
2022-11-29T07:45:33.448Z,1015.58
2022-11-29T07:46:33.741Z,1015.66
2022-11-29T07:47:35.912Z,1015.64
2022-11-29T07:48:34.216Z,1015.69
2022-11-29T07:49:34.454Z,1015.70
2022-11-29T07:50:34.697Z,1015.70
2022-11-29T07:51:34.974Z,1015.66
2022-11-29T07:52:35.245Z,1015.67
2022-11-29T07:53:35.484Z,1015.67
2022-11-29T07:54:35.749Z,1015.76
2022-11-29T07:55:36.819Z,1015.76
2022-11-29T07:56:36.269Z,1015.74
2022-11-29T07:57:36.505Z,1015.78
2022-11-29T07:58:36.795Z,1015.77
2022-11-29T07:59:37.038Z,1015.77
2022-11-29T08:00:37.512Z,1015.78
2022-11-29T08:01:37.663Z,1015.75
2022-11-29T08:02:37.992Z,1015.74
2022-11-29T08:03:38.268Z,1015.78
2022-11-29T08:04:38.557Z,1015.71
2022-11-29T08:05:38.809Z,1015.75
2022-11-29T08:06:39.104Z,1015.68
2022-11-29T08:07:39.405Z,1015.70
2022-11-29T08:08:43.925Z,1015.66
2022-11-29T08:09:40.150Z,1015.64
2022-11-29T08:10:40.319Z,1015.68
2022-11-29T08:11:40.914Z,1015.67
2022-11-29T08:12:41.024Z,1015.69
2022-11-29T08:13:41.915Z,1015.65
2022-11-29T08:14:42.299Z,1015.72
2022-11-29T08:15:42.124Z,1015.74
2022-11-29T08:16:42.081Z,1015.72
2022-11-29T08:17:42.344Z,1015.75
2022-11-29T08:18:42.558Z,1015.75
2022-11-29T08:19:43.173Z,1015.81
2022-11-29T08:20:43.123Z,1015.80
2022-11-29T08:21:44.181Z,1015.78
2022-11-29T08:22:43.662Z,1015.79
2022-11-29T08:23:44.703Z,1015.79
2022-11-29T08:24:44.466Z,1015.79
2022-11-29T08:25:44.464Z,1015.86
2022-11-29T08:26:44.772Z,1015.82
2022-11-29T08:27:45.067Z,1015.81
2022-11-29T08:28:45.380Z,1015.87
2022-11-29T08:29:45.644Z,1015.85
2022-11-29T08:30:45.947Z,1015.87
2022-11-29T08:31:46.307Z,1015.88
2022-11-29T08:32:51.213Z,1015.87
2022-11-29T08:33:47.715Z,1015.84
2022-11-29T08:34:48.163Z,1015.87
2022-11-29T08:35:47.346Z,1015.82
2022-11-29T08:36:47.626Z,1015.88
2022-11-29T08:37:47.921Z,1015.83
2022-11-29T08:38:48.176Z,1015.82
2022-11-29T08:39:48.446Z,1015.86
2022-11-29T08:40:48.728Z,1015.84
2022-11-29T08:41:49.007Z,1015.87
2022-11-29T08:42:49.271Z,1015.81
2022-11-29T08:43:49.563Z,1015.86
2022-11-29T08:44:49.828Z,1015.88
2022-11-29T08:45:50.100Z,1015.87
2022-11-29T08:46:50.425Z,1015.89
2022-11-29T08:47:50.672Z,1015.93
2022-11-29T08:48:50.962Z,1015.90
2022-11-29T08:49:51.210Z,1015.92
2022-11-29T08:50:51.487Z,1015.88
2022-11-29T08:51:51.759Z,1015.95
2022-11-29T08:52:52.028Z,1015.97
2022-11-29T08:53:52.311Z,1015.98
2022-11-29T08:54:52.591Z,1016.01
2022-11-29T08:55:52.853Z,1015.98
2022-11-29T08:57:31.452Z,1015.99
2022-11-29T08:57:54.372Z,1015.99
2022-11-29T08:58:53.704Z,1016.02
2022-11-29T08:59:54.060Z,1016.01
2022-11-29T09:00:54.267Z,1016.01
2022-11-29T09:01:54.587Z,1015.97
2022-11-29T09:02:55.645Z,1016.00
2022-11-29T09:03:55.156Z,1015.96
2022-11-29T09:04:55.438Z,1015.96
2022-11-29T09:05:55.743Z,1016.01
2022-11-29T09:06:56.024Z,1015.94
2022-11-29T09:07:56.318Z,1015.97
2022-11-29T09:08:56.606Z,1016.00
2022-11-29T09:09:56.928Z,1016.05
2022-11-29T09:10:57.177Z,1016.05
2022-11-29T09:11:57.472Z,1016.05
2022-11-29T09:12:57.718Z,1016.04
2022-11-29T09:13:57.979Z,1016.03
2022-11-29T09:14:58.250Z,1016.06
2022-11-29T09:15:58.506Z,1016.03
2022-11-29T09:16:58.822Z,1016.03
2022-11-29T09:17:59.066Z,1016.08
2022-11-29T09:18:59.331Z,1016.04
2022-11-29T09:19:59.615Z,1016.11
2022-11-29T09:20:59.874Z,1016.09
2022-11-29T09:22:00.147Z,1016.09
2022-11-29T09:23:00.425Z,1016.12
2022-11-29T09:24:00.677Z,1016.07
2022-11-29T09:25:00.959Z,1016.09
2022-11-29T09:26:01.218Z,1016.16
2022-11-29T09:27:01.497Z,1016.09
2022-11-29T09:28:01.770Z,1016.08
2022-11-29T09:29:02.037Z,1016.09
2022-11-29T09:30:02.293Z,1016.09
2022-11-29T09:31:02.558Z,1016.11
2022-11-29T09:32:02.898Z,1016.14
2022-11-29T09:33:03.157Z,1016.18
2022-11-29T09:34:03.491Z,1016.09
2022-11-29T09:35:03.776Z,1016.18
2022-11-29T09:36:04.034Z,1016.13
2022-11-29T09:37:04.339Z,1016.20
2022-11-29T09:38:04.673Z,1016.18
2022-11-29T09:39:04.951Z,1016.23
2022-11-29T09:40:05.199Z,1016.24
2022-11-29T09:41:05.461Z,1016.25
2022-11-29T09:42:05.740Z,1016.17
2022-11-29T09:43:06.006Z,1016.16
2022-11-29T09:44:06.260Z,1016.29
2022-11-29T09:45:06.530Z,1016.26
2022-11-29T09:46:06.879Z,1016.28
2022-11-29T09:47:07.072Z,1016.23
2022-11-29T09:48:07.328Z,1016.25
2022-11-29T09:49:07.582Z,1016.24
2022-11-29T09:50:07.852Z,1016.20
2022-11-29T09:51:08.122Z,1016.24
2022-11-29T09:52:08.432Z,1016.21
2022-11-29T09:53:08.711Z,1016.16
2022-11-29T09:54:08.964Z,1016.25
2022-11-29T09:55:09.234Z,1016.23
2022-11-29T09:56:09.503Z,1016.24
2022-11-29T09:57:11.019Z,1016.18
2022-11-29T09:58:10.083Z,1016.24
2022-11-29T09:59:10.344Z,1016.28
2022-11-29T10:00:10.594Z,1016.24
2022-11-29T10:01:10.902Z,1016.27
2022-11-29T10:02:11.191Z,1016.29
2022-11-29T10:03:11.443Z,1016.26
2022-11-29T10:04:11.715Z,1016.25
2022-11-29T10:05:11.975Z,1016.28
2022-11-29T10:06:12.336Z,1016.29
2022-11-29T10:07:12.513Z,1016.23
2022-11-29T10:08:12.777Z,1016.30
2022-11-29T10:09:13.037Z,1016.23
2022-11-29T10:10:13.312Z,1016.29
2022-11-29T10:11:13.570Z,1016.33
2022-11-29T10:12:13.896Z,1016.30
2022-11-29T10:13:22.085Z,1016.24
2022-11-29T10:14:14.702Z,1016.29
2022-11-29T10:15:15.035Z,1016.27
2022-11-29T10:16:15.224Z,1016.28
2022-11-29T10:17:15.443Z,1016.26
2022-11-29T10:18:15.747Z,1016.25
2022-11-29T10:19:16.062Z,1016.32
2022-11-29T10:20:16.461Z,1016.27
2022-11-29T10:21:16.716Z,1016.29
2022-11-29T10:22:16.998Z,1016.29
2022-11-29T10:23:17.169Z,1016.31
2022-11-29T10:24:17.434Z,1016.34
2022-11-29T10:25:17.749Z,1016.28
2022-11-29T10:26:18.002Z,1016.30
2022-11-29T10:27:18.717Z,1016.30
2022-11-29T10:28:18.515Z,1016.30
2022-11-29T10:29:18.758Z,1016.28
2022-11-29T10:30:18.993Z,1016.32
2022-11-29T10:31:19.486Z,1016.32
2022-11-29T10:32:19.600Z,1016.30
2022-11-29T10:33:19.820Z,1016.39
2022-11-29T10:34:20.157Z,1016.33
2022-11-29T10:35:20.366Z,1016.34
2022-11-29T10:36:20.735Z,1016.32
2022-11-29T10:37:20.969Z,1016.36
2022-11-29T10:38:36.560Z,1016.37
2022-11-29T10:39:22.574Z,1016.31
2022-11-29T10:40:21.736Z,1016.38
2022-11-29T10:41:21.960Z,1016.32
2022-11-29T10:42:22.263Z,1016.36
2022-11-29T10:43:22.502Z,1016.33
2022-11-29T10:44:22.752Z,1016.41
2022-11-29T10:45:23.029Z,1016.43
2022-11-29T10:46:23.349Z,1016.39
2022-11-29T10:47:23.499Z,1016.33
2022-11-29T10:48:23.721Z,1016.42
2022-11-29T10:49:24.042Z,1016.40
2022-11-29T10:50:24.385Z,1016.37
2022-11-29T10:51:24.581Z,1016.37
2022-11-29T10:52:24.961Z,1016.38
2022-11-29T10:53:25.183Z,1016.39
2022-11-29T10:54:25.491Z,1016.40
2022-11-29T10:55:25.792Z,1016.44
2022-11-29T10:56:26.127Z,1016.43
2022-11-29T10:57:26.442Z,1016.39
2022-11-29T10:58:28.726Z,1016.34
2022-11-29T10:59:27.193Z,1016.37
2022-11-29T11:00:27.378Z,1016.31
2022-11-29T11:01:27.686Z,1016.31
2022-11-29T11:02:28.057Z,1016.29
2022-11-29T11:03:28.159Z,1016.39
2022-11-29T11:04:28.400Z,1016.33
2022-11-29T11:05:28.758Z,1016.36
2022-11-29T11:06:29.023Z,1016.38
2022-11-29T11:07:29.376Z,1016.35
2022-11-29T11:08:29.624Z,1016.33
2022-11-29T11:09:29.833Z,1016.37
2022-11-29T11:10:30.244Z,1016.34
2022-11-29T11:11:30.512Z,1016.36
2022-11-29T11:12:30.754Z,1016.38
2022-11-29T11:13:30.932Z,1016.38
2022-11-29T11:14:31.342Z,1016.36
2022-11-29T11:15:36.715Z,1016.37
2022-11-29T11:16:37.098Z,1016.42
2022-11-29T11:17:33.048Z,1016.40
2022-11-29T11:18:32.299Z,1016.33
2022-11-29T11:19:32.649Z,1016.34
2022-11-29T11:20:32.962Z,1016.39
2022-11-29T11:21:35.324Z,1016.34
2022-11-29T11:22:33.547Z,1016.36
2022-11-29T11:23:36.361Z,1016.40
2022-11-29T11:24:34.174Z,1016.34
2022-11-29T11:25:34.473Z,1016.32
2022-11-29T11:26:34.698Z,1016.40
2022-11-29T11:27:34.897Z,1016.32
2022-11-29T11:28:35.252Z,1016.37
2022-11-29T11:29:35.470Z,1016.33
2022-11-29T11:30:35.797Z,1016.36
2022-11-29T11:31:36.095Z,1016.32
2022-11-29T11:32:36.418Z,1016.33
2022-11-29T11:33:36.730Z,1016.33
2022-11-29T11:34:37.060Z,1016.30
2022-11-29T11:35:37.421Z,1016.28
2022-11-29T11:36:37.600Z,1016.35
2022-11-29T11:37:37.903Z,1016.33
2022-11-29T11:38:38.231Z,1016.34
2022-11-29T11:39:38.554Z,1016.37
2022-11-29T11:40:38.940Z,1016.41
2022-11-29T11:41:39.164Z,1016.34
2022-11-29T11:42:39.451Z,1016.36
2022-11-29T11:43:39.691Z,1016.40
2022-11-29T11:44:58.034Z,1016.35
2022-11-29T11:45:41.319Z,1016.38
2022-11-29T11:46:40.649Z,1016.44
2022-11-29T11:47:40.824Z,1016.37
2022-11-29T11:48:41.185Z,1016.37
2022-11-29T11:49:41.584Z,1016.41
2022-11-29T11:50:41.635Z,1016.43
2022-11-29T11:51:43.269Z,1016.40
2022-11-29T11:52:50.579Z,1016.41
2022-11-29T11:53:42.645Z,1016.36
2022-11-29T11:54:43.128Z,1016.37
2022-11-29T11:55:43.134Z,1016.40
2022-11-29T11:56:43.361Z,1016.43
2022-11-29T11:58:09.924Z,1016.39
2022-11-29T11:58:45.140Z,1016.38
2022-11-29T12:06:08.990Z,1016.57
2022-11-29T12:07:07.999Z,1016.51
2022-11-29T12:08:08.678Z,1016.53
2022-11-29T12:09:40.896Z,1016.54
2022-11-29T12:10:07.700Z,1016.50
2022-11-29T12:11:08.006Z,1016.50
2022-11-29T12:12:08.293Z,1016.47
2022-11-29T12:13:08.832Z,1016.48
2022-11-29T12:14:08.930Z,1016.48
2022-11-29T12:15:09.167Z,1016.49